createdAt,value
2022-07-26T00:01:32.039Z,36.40
2022-07-26T00:04:02.340Z,36.40
2022-07-26T00:06:31.031Z,36.40
2022-07-26T00:09:01.064Z,36.40
2022-07-26T00:11:33.663Z,36.30
2022-07-26T00:14:02.799Z,36.30
2022-07-26T00:16:32.662Z,36.30
2022-07-26T00:19:01.324Z,36.20
2022-07-26T00:21:30.590Z,36.20
2022-07-26T00:24:00.740Z,36.20
2022-07-26T00:26:29.344Z,36.20
2022-07-26T00:28:58.729Z,36.20
2022-07-26T00:31:27.910Z,36.20
2022-07-26T00:33:56.638Z,36.20
2022-07-26T00:36:26.042Z,36.10
2022-07-26T00:38:55.807Z,36.20
2022-07-26T00:41:25.780Z,36.20
2022-07-26T00:43:57.693Z,36.20
2022-07-26T00:46:26.955Z,36.20
2022-07-26T00:48:55.716Z,36.20
2022-07-26T00:51:25.143Z,36.20
2022-07-26T00:53:54.207Z,36.20
2022-07-26T00:56:24.989Z,36.20
2022-07-26T00:58:53.670Z,36.20
2022-07-26T01:01:22.576Z,36.10
2022-07-26T01:03:53.279Z,36.20
2022-07-26T01:06:27.384Z,36.20
2022-07-26T01:08:56.977Z,36.20
2022-07-26T01:11:26.965Z,36.10
2022-07-26T01:13:55.555Z,36.10
2022-07-26T01:16:25.592Z,36.10
2022-07-26T01:18:54.439Z,36.10
2022-07-26T01:21:23.236Z,36.00
2022-07-26T01:23:53.344Z,36.00
2022-07-26T01:26:21.969Z,36.00
2022-07-26T01:28:54.639Z,36.00
2022-07-26T01:31:23.540Z,36.00
2022-07-26T01:33:52.711Z,36.00
2022-07-26T01:36:21.641Z,36.00
2022-07-26T01:38:50.826Z,36.00
2022-07-26T01:41:30.710Z,36.00
2022-07-26T01:44:08.627Z,36.00
2022-07-26T01:46:37.534Z,36.00
2022-07-26T01:49:08.598Z,36.00
2022-07-26T01:51:37.604Z,35.90
2022-07-26T01:54:06.847Z,35.90
2022-07-26T01:56:37.028Z,35.90
2022-07-26T01:59:06.370Z,35.90
2022-07-26T02:01:38.448Z,35.90
2022-07-26T02:04:28.942Z,35.90
2022-07-26T02:06:57.533Z,35.80
2022-07-26T02:09:26.514Z,35.80
2022-07-26T02:11:59.342Z,35.80
2022-07-26T02:14:28.330Z,35.80
2022-07-26T02:17:00.205Z,35.70
2022-07-26T02:19:30.375Z,35.70
2022-07-26T02:22:00.799Z,35.70
2022-07-26T02:24:30.413Z,35.70
2022-07-26T02:27:02.344Z,35.70
2022-07-26T02:29:31.712Z,35.70
2022-07-26T02:32:01.116Z,35.70
2022-07-26T02:34:33.817Z,35.70
2022-07-26T02:37:03.104Z,35.70
2022-07-26T02:39:31.941Z,35.60
2022-07-26T02:42:04.242Z,35.60
2022-07-26T02:44:34.911Z,35.60
2022-07-26T02:47:04.660Z,35.60
2022-07-26T02:49:33.384Z,35.60
2022-07-26T02:52:02.190Z,35.60
2022-07-26T02:54:30.802Z,35.60
2022-07-26T02:56:59.378Z,35.60
2022-07-26T02:59:29.587Z,35.50
2022-07-26T03:01:58.639Z,35.50
2022-07-26T03:04:27.283Z,35.50
2022-07-26T03:06:56.054Z,35.40
2022-07-26T03:09:24.665Z,35.40
2022-07-26T03:11:53.350Z,35.40
2022-07-26T03:14:22.140Z,35.40
2022-07-26T03:16:52.064Z,35.40
2022-07-26T03:19:20.767Z,35.40
2022-07-26T03:21:49.529Z,35.30
2022-07-26T03:24:18.330Z,35.30
2022-07-26T03:26:46.947Z,35.30
2022-07-26T03:29:15.762Z,35.30
2022-07-26T03:31:44.441Z,35.30
2022-07-26T03:34:14.452Z,35.30
2022-07-26T03:36:44.025Z,35.30
2022-07-26T03:39:12.767Z,35.30
2022-07-26T03:41:41.337Z,35.40
2022-07-26T03:44:10.523Z,35.40
2022-07-26T03:46:39.717Z,35.40
2022-07-26T03:49:10.994Z,35.40
2022-07-26T03:51:44.781Z,35.40
2022-07-26T03:54:13.419Z,35.40
2022-07-26T03:56:41.158Z,35.30
2022-07-26T03:59:12.399Z,35.30
2022-07-26T04:01:42.753Z,35.30
2022-07-26T04:04:14.188Z,35.30
2022-07-26T04:06:45.981Z,35.40
2022-07-26T04:09:16.650Z,35.40
2022-07-26T04:11:45.566Z,35.40
2022-07-26T04:14:14.156Z,35.40
2022-07-26T04:16:43.852Z,35.50
2022-07-26T04:19:12.673Z,35.40
2022-07-26T04:21:41.391Z,35.50
2022-07-26T04:24:12.077Z,35.60
2022-07-26T04:26:40.843Z,35.60
2022-07-26T04:29:09.495Z,35.60
2022-07-26T04:31:40.639Z,35.60
2022-07-26T04:34:10.238Z,35.70
2022-07-26T04:36:39.371Z,35.70
2022-07-26T04:39:08.213Z,35.70
2022-07-26T04:41:38.193Z,35.80
2022-07-26T04:44:07.445Z,35.80
2022-07-26T04:46:36.559Z,35.70
2022-07-26T04:49:05.291Z,35.70
2022-07-26T04:51:33.982Z,35.70
2022-07-26T04:54:02.791Z,35.80
2022-07-26T04:56:31.389Z,35.90
2022-07-26T04:59:01.321Z,36.00
2022-07-26T05:01:30.257Z,36.00
2022-07-26T05:03:59.009Z,36.10
2022-07-26T05:06:27.587Z,36.10
2022-07-26T05:08:56.378Z,36.10
2022-07-26T05:11:25.391Z,36.20
2022-07-26T05:13:54.000Z,36.20
2022-07-26T05:16:24.240Z,36.20
2022-07-26T05:18:52.921Z,36.40
2022-07-26T05:21:21.676Z,36.40
2022-07-26T05:23:50.505Z,36.50
2022-07-26T05:26:19.112Z,36.40
2022-07-26T05:28:47.770Z,36.40
2022-07-26T05:31:16.699Z,36.40
2022-07-26T05:33:46.689Z,36.50
2022-07-26T05:36:15.371Z,36.60
2022-07-26T05:38:44.251Z,36.60
2022-07-26T05:41:13.082Z,36.70
2022-07-26T05:43:42.125Z,36.80
2022-07-26T05:46:12.850Z,36.80
2022-07-26T05:48:42.046Z,36.90
2022-07-26T05:51:12.387Z,36.90
2022-07-26T05:53:41.617Z,36.90
2022-07-26T05:56:10.500Z,36.90
2022-07-26T05:58:39.127Z,36.80
2022-07-26T06:01:08.129Z,37.00
2022-07-26T06:03:36.802Z,37.10
2022-07-26T06:06:05.897Z,37.10
2022-07-26T06:08:37.233Z,37.20
2022-07-26T06:11:06.333Z,37.30
2022-07-26T06:13:34.900Z,37.30
2022-07-26T06:16:03.723Z,37.40
2022-07-26T06:18:32.400Z,37.30
2022-07-26T06:21:02.560Z,37.50
2022-07-26T06:23:34.028Z,37.60
2022-07-26T06:26:05.968Z,37.70
2022-07-26T06:28:35.005Z,37.70
2022-07-26T06:31:03.659Z,37.70
2022-07-26T06:33:32.450Z,37.70
2022-07-26T06:36:01.351Z,37.90
2022-07-26T06:38:30.518Z,38.10
2022-07-26T06:40:59.638Z,38.20
2022-07-26T06:43:29.965Z,38.30
2022-07-26T06:45:58.837Z,38.50
2022-07-26T06:48:27.614Z,38.60
2022-07-26T06:50:57.864Z,38.60
2022-07-26T06:53:26.453Z,38.60
2022-07-26T06:55:55.015Z,38.40
2022-07-26T06:58:23.866Z,38.50
2022-07-26T07:00:53.870Z,38.80
2022-07-26T07:03:22.566Z,39.10
2022-07-26T07:05:51.422Z,39.10
2022-07-26T07:08:23.290Z,39.30
2022-07-26T07:10:52.888Z,39.40
2022-07-26T07:13:22.912Z,39.50
2022-07-26T07:15:52.931Z,39.60
2022-07-26T07:18:23.777Z,39.80
2022-07-26T07:20:52.429Z,39.80
2022-07-26T07:23:23.290Z,40.00
2022-07-26T07:25:52.196Z,40.00
2022-07-26T07:28:20.841Z,40.00
2022-07-26T07:30:54.198Z,40.10
2022-07-26T07:33:23.327Z,40.30
2022-07-26T07:35:54.696Z,40.40
2022-07-26T07:38:23.402Z,40.60
2022-07-26T07:40:53.244Z,40.50
2022-07-26T07:43:22.088Z,40.60
2022-07-26T07:45:50.699Z,40.70
2022-07-26T07:48:20.699Z,40.80
2022-07-26T07:50:49.707Z,41.00
2022-07-26T07:53:18.405Z,41.10
2022-07-26T07:55:48.614Z,41.20
2022-07-26T07:58:19.070Z,41.30
2022-07-26T08:00:48.648Z,41.40
2022-07-26T08:03:18.826Z,41.40
2022-07-26T08:05:50.952Z,41.40
2022-07-26T08:08:22.231Z,41.40
2022-07-26T08:10:53.517Z,41.40
2022-07-26T08:13:23.551Z,41.40
2022-07-26T08:15:53.449Z,41.20
2022-07-26T08:18:23.388Z,41.20
2022-07-26T08:20:54.840Z,41.00
2022-07-26T08:23:23.891Z,41.00
2022-07-26T08:25:58.703Z,40.90
2022-07-26T08:28:46.984Z,40.80
2022-07-26T08:31:17.169Z,40.50
2022-07-26T08:33:46.945Z,40.40
2022-07-26T08:36:18.966Z,40.40
2022-07-26T08:38:48.435Z,40.30
2022-07-26T08:41:18.978Z,40.20
2022-07-26T08:43:52.838Z,40.40
2022-07-26T08:46:27.956Z,40.50
2022-07-26T08:48:57.436Z,40.60
2022-07-26T08:51:28.408Z,40.60
2022-07-26T08:54:05.760Z,40.90
2022-07-26T08:56:36.838Z,40.90
2022-07-26T08:59:07.732Z,40.90
2022-07-26T09:01:37.078Z,40.70
2022-07-26T09:04:34.012Z,40.70
2022-07-26T09:07:08.459Z,40.80
2022-07-26T09:09:40.948Z,40.70
2022-07-26T09:12:21.464Z,40.90
2022-07-26T09:14:50.811Z,41.00
2022-07-26T09:17:23.515Z,41.20
2022-07-26T09:20:09.525Z,41.20
2022-07-26T09:22:58.028Z,41.00
2022-07-26T09:25:28.022Z,40.90
2022-07-26T09:27:57.269Z,41.00
2022-07-26T09:30:26.044Z,41.00
2022-07-26T09:33:00.794Z,40.90
2022-07-26T09:35:51.224Z,41.10
2022-07-26T09:38:22.148Z,40.80
2022-07-26T09:40:51.828Z,40.40
2022-07-26T09:43:24.237Z,40.40
2022-07-26T09:46:07.455Z,40.80
2022-07-26T09:49:08.374Z,40.90
2022-07-26T09:51:40.344Z,41.10
2022-07-26T09:54:12.953Z,41.20
2022-07-26T09:56:49.362Z,41.40
2022-07-26T09:59:21.680Z,41.20
2022-07-26T10:01:54.494Z,41.50
2022-07-26T10:04:25.614Z,41.10
2022-07-26T10:06:55.867Z,41.10
2022-07-26T10:09:26.693Z,41.10
2022-07-26T10:12:00.849Z,40.60
2022-07-26T10:14:41.204Z,40.90
2022-07-26T10:17:46.657Z,40.80
2022-07-26T10:20:48.779Z,40.60
2022-07-26T10:23:43.540Z,40.20
2022-07-26T10:26:38.886Z,40.10
2022-07-26T10:29:31.664Z,40.10
2022-07-26T10:32:20.505Z,40.30
2022-07-26T10:34:49.757Z,40.30
2022-07-26T10:37:29.684Z,40.20
2022-07-26T10:40:21.102Z,40.40
2022-07-26T11:00:24.166Z,39.20
2022-07-26T11:03:00.520Z,38.40
2022-07-26T11:05:35.008Z,38.20
2022-07-26T11:08:08.856Z,38.20
2022-07-26T11:10:40.616Z,38.40
2022-07-26T11:13:17.173Z,38.40
2022-07-26T11:15:51.155Z,38.40
2022-07-26T11:18:27.907Z,38.50
2022-07-26T11:20:59.190Z,38.30
2022-07-26T11:23:38.747Z,38.20
2022-07-26T11:26:18.007Z,38.00
2022-07-26T11:28:59.575Z,37.60
2022-07-26T11:31:50.520Z,37.40
2022-07-26T11:34:30.190Z,37.30
2022-07-26T11:37:01.199Z,37.50
2022-07-26T11:39:33.299Z,37.50
2022-07-26T11:42:06.415Z,37.20
2022-07-26T11:44:35.925Z,36.90
2022-07-26T11:47:14.586Z,37.10
2022-07-26T11:49:52.104Z,37.20
2022-07-26T11:52:32.497Z,37.10
2022-07-26T11:55:01.791Z,37.00
2022-07-26T11:57:32.754Z,37.00
2022-07-26T12:00:02.775Z,36.60
2022-07-26T12:02:41.808Z,36.50
2022-07-26T12:05:16.781Z,36.80
2022-07-26T12:08:02.950Z,36.70
2022-07-26T12:10:31.934Z,36.50
2022-07-26T12:13:15.298Z,36.30
2022-07-26T12:15:49.894Z,36.20
2022-07-26T12:18:30.006Z,36.20
2022-07-26T12:21:05.595Z,36.10
2022-07-26T12:23:48.206Z,36.00
2022-07-26T12:26:25.989Z,36.00
2022-07-26T12:28:55.404Z,35.90
2022-07-26T12:31:27.150Z,35.90
2022-07-26T12:33:57.961Z,35.80
2022-07-26T12:36:29.521Z,35.90
2022-07-26T12:39:00.782Z,35.40
2022-07-26T12:41:35.097Z,35.60
2022-07-26T12:44:05.720Z,35.40
2022-07-26T12:46:36.037Z,35.40
2022-07-26T12:49:06.754Z,35.10
2022-07-26T12:51:35.640Z,34.90
2022-07-26T12:54:06.424Z,34.80
2022-07-26T12:56:35.602Z,34.80
2022-07-26T12:59:04.358Z,34.80
2022-07-26T13:01:33.583Z,34.90
2022-07-26T13:04:02.973Z,35.10
2022-07-26T13:06:33.727Z,35.10
2022-07-26T13:09:02.282Z,35.10
2022-07-26T13:11:31.776Z,35.10
2022-07-26T13:14:00.396Z,35.10
2022-07-26T13:16:29.042Z,35.40
2022-07-26T13:18:57.894Z,35.10
2022-07-26T13:21:26.564Z,35.30
2022-07-26T13:24:03.821Z,35.10
2022-07-26T13:26:37.259Z,35.30
2022-07-26T13:29:06.175Z,35.30
2022-07-26T13:31:34.951Z,35.40
2022-07-26T13:34:03.533Z,35.40
2022-07-26T13:36:32.653Z,35.50
2022-07-26T13:39:01.594Z,35.70
2022-07-26T13:41:32.436Z,35.60
2022-07-26T13:44:05.164Z,35.60
2022-07-26T13:46:34.098Z,35.70
2022-07-26T13:49:05.307Z,35.70
2022-07-26T13:51:54.519Z,35.70
2022-07-26T13:54:26.388Z,35.70
2022-07-26T13:56:56.901Z,35.60
2022-07-26T13:59:26.510Z,35.70
2022-07-26T14:01:56.763Z,35.60
2022-07-26T14:04:26.073Z,35.60
2022-07-26T14:06:54.786Z,35.40
2022-07-26T14:09:24.746Z,35.50
2022-07-26T14:11:53.590Z,35.40
2022-07-26T14:14:23.643Z,35.50
2022-07-26T14:16:52.449Z,35.40
2022-07-26T14:19:21.425Z,35.00
2022-07-26T14:21:59.220Z,34.90
2022-07-26T14:24:30.428Z,35.10
2022-07-26T14:27:00.257Z,34.80
2022-07-26T14:29:33.196Z,34.80
2022-07-26T14:32:03.482Z,35.00
2022-07-26T14:34:32.098Z,35.20
2022-07-26T14:37:00.921Z,35.10
2022-07-26T14:39:37.218Z,35.20
2022-07-26T14:42:06.704Z,35.10
2022-07-26T14:44:36.763Z,35.10
2022-07-26T14:47:13.551Z,35.10
2022-07-26T14:49:42.284Z,35.30
2022-07-26T14:52:11.130Z,35.30
2022-07-26T14:54:39.921Z,35.20
2022-07-26T14:57:08.634Z,35.30
2022-07-26T14:59:38.559Z,35.20
2022-07-26T15:02:07.694Z,35.20
2022-07-26T15:04:36.426Z,35.20
2022-07-26T15:07:05.138Z,35.30
2022-07-26T15:09:33.973Z,34.90
2022-07-26T15:12:02.643Z,35.10
2022-07-26T15:14:31.337Z,35.30
2022-07-26T15:17:01.576Z,35.30
2022-07-26T15:19:30.419Z,35.20
2022-07-26T15:21:59.619Z,35.10
2022-07-26T15:24:28.898Z,35.30
2022-07-26T15:26:57.541Z,35.10
2022-07-26T15:29:26.241Z,35.20
2022-07-26T15:31:55.249Z,35.10
2022-07-26T15:34:25.428Z,35.10
2022-07-26T15:36:54.125Z,35.20
2022-07-26T15:39:22.959Z,35.10
2022-07-26T15:41:52.074Z,35.10
2022-07-26T15:44:24.366Z,35.10
2022-07-26T15:46:54.725Z,35.20
2022-07-26T15:49:25.195Z,35.20
2022-07-26T15:51:53.785Z,35.30
2022-07-26T15:54:22.778Z,35.50
2022-07-26T15:56:51.513Z,35.50
2022-07-26T15:59:20.406Z,35.70
2022-07-26T16:01:49.290Z,35.70
2022-07-26T16:04:18.127Z,35.80
2022-07-26T16:06:48.236Z,35.70
2022-07-26T16:09:18.905Z,35.60
2022-07-26T16:11:49.804Z,35.70
2022-07-26T16:14:19.282Z,35.50
2022-07-26T16:16:48.029Z,35.40
2022-07-26T16:19:16.734Z,35.40
2022-07-26T16:21:47.517Z,35.30
2022-07-26T16:24:16.336Z,35.30
2022-07-26T16:26:46.995Z,35.40
2022-07-26T16:29:16.809Z,35.60
2022-07-26T16:31:45.580Z,35.50
2022-07-26T16:34:14.596Z,35.60
2022-07-26T16:36:43.995Z,35.50
2022-07-26T16:39:14.839Z,35.50
2022-07-26T16:41:44.126Z,35.60
2022-07-26T16:44:12.821Z,35.70
2022-07-26T16:46:41.548Z,35.70
2022-07-26T16:49:13.430Z,35.80
2022-07-26T16:51:42.742Z,35.90
2022-07-26T16:54:12.851Z,35.90
2022-07-26T16:56:41.863Z,36.00
2022-07-26T16:59:10.837Z,36.00
2022-07-26T17:01:39.556Z,36.10
2022-07-26T17:04:08.413Z,36.20
2022-07-26T17:06:37.179Z,36.20
2022-07-26T17:09:05.814Z,36.20
2022-07-26T17:11:36.510Z,36.20
2022-07-26T17:14:05.174Z,36.20
2022-07-26T17:16:33.983Z,36.30
2022-07-26T17:19:02.820Z,36.30
2022-07-26T17:21:31.475Z,36.30
2022-07-26T17:24:03.933Z,36.40
2022-07-26T17:26:37.303Z,36.40
2022-07-26T17:29:06.350Z,36.40
2022-07-26T17:31:35.261Z,36.40
2022-07-26T17:34:03.953Z,36.30
2022-07-26T17:36:33.126Z,36.30
2022-07-26T17:39:02.535Z,36.30
2022-07-26T17:41:33.012Z,36.30
2022-07-26T17:44:04.856Z,36.20
2022-07-26T17:46:33.783Z,36.20
2022-07-26T17:49:02.720Z,36.30
2022-07-26T17:51:31.629Z,36.30
2022-07-26T17:54:00.956Z,36.30
2022-07-26T17:56:30.543Z,36.30
2022-07-26T17:58:59.435Z,36.30
2022-07-26T18:01:29.800Z,36.30
2022-07-26T18:03:58.673Z,36.30
2022-07-26T18:06:27.638Z,36.30
2022-07-26T18:08:57.820Z,36.30
2022-07-26T18:11:26.669Z,36.20
2022-07-26T18:13:55.705Z,36.30
2022-07-26T18:16:24.661Z,36.30
2022-07-26T18:18:54.865Z,36.30
2022-07-26T18:21:23.750Z,36.30
2022-07-26T18:24:15.359Z,36.30
2022-07-26T18:26:41.298Z,36.30
2022-07-26T18:29:10.403Z,36.30
2022-07-26T18:31:39.507Z,36.30
2022-07-26T18:34:09.779Z,36.30
2022-07-26T18:36:38.484Z,36.30
2022-07-26T18:39:07.233Z,36.30
2022-07-26T18:41:36.414Z,36.30
2022-07-26T18:44:05.464Z,36.40
2022-07-26T18:46:34.155Z,36.40
2022-07-26T18:49:03.194Z,36.40
2022-07-26T18:51:33.580Z,36.40
2022-07-26T18:54:02.261Z,36.40
2022-07-26T18:56:31.128Z,36.40
2022-07-26T18:58:59.702Z,36.40
2022-07-26T19:01:28.347Z,36.40
2022-07-26T19:03:57.519Z,36.30
2022-07-26T19:06:26.290Z,36.40
2022-07-26T19:08:56.274Z,36.30
2022-07-26T19:11:26.870Z,36.30
2022-07-26T19:13:55.591Z,36.30
2022-07-26T19:16:24.397Z,36.30
2022-07-26T19:18:57.364Z,36.20
2022-07-26T19:21:26.399Z,36.20
2022-07-26T19:23:56.759Z,36.20
2022-07-26T19:26:27.489Z,36.10
2022-07-26T19:28:56.493Z,36.10
2022-07-26T19:31:25.186Z,36.10
2022-07-26T19:33:54.065Z,36.10
2022-07-26T19:36:26.035Z,36.00
2022-07-26T19:38:57.565Z,36.00
2022-07-26T19:41:26.385Z,36.00
2022-07-26T19:43:54.976Z,36.00
2022-07-26T19:46:23.989Z,35.90
2022-07-26T19:48:55.583Z,35.90
2022-07-26T19:51:24.287Z,36.00
2022-07-26T19:53:52.853Z,35.90
2022-07-26T19:56:23.068Z,35.90
2022-07-26T19:58:52.171Z,35.90
2022-07-26T20:01:22.702Z,35.90
2022-07-26T20:03:51.630Z,35.90
2022-07-26T20:06:20.552Z,35.90
2022-07-26T20:08:50.482Z,35.90
2022-07-26T20:11:22.632Z,35.90
2022-07-26T20:13:53.031Z,35.80
2022-07-26T20:16:22.739Z,35.80
2022-07-26T20:18:51.367Z,35.80
2022-07-26T20:21:20.413Z,35.80
2022-07-26T20:23:49.666Z,35.80
2022-07-26T20:26:18.307Z,35.80
2022-07-26T20:28:46.949Z,35.80
2022-07-26T20:31:20.567Z,35.80
2022-07-26T20:33:49.261Z,35.80
2022-07-26T20:36:18.035Z,35.80
2022-07-26T20:38:51.362Z,35.80
2022-07-26T20:41:21.973Z,35.80
2022-07-26T20:43:50.851Z,35.80
2022-07-26T20:46:21.016Z,35.70
2022-07-26T20:48:52.859Z,35.70
2022-07-26T20:51:21.908Z,35.70
2022-07-26T20:53:51.144Z,35.70
2022-07-26T20:56:20.003Z,35.70
2022-07-26T20:58:48.601Z,35.70
2022-07-26T21:01:17.280Z,35.70
2022-07-26T21:03:47.501Z,35.70
2022-07-26T21:06:16.219Z,35.70
2022-07-26T21:08:44.895Z,35.70
2022-07-26T21:11:13.956Z,35.70
2022-07-26T21:13:42.606Z,35.70
2022-07-26T21:16:12.219Z,35.70
2022-07-26T21:18:41.925Z,35.70
2022-07-26T21:21:12.067Z,35.70
2022-07-26T21:23:40.729Z,35.60
2022-07-26T21:26:09.761Z,35.60
2022-07-26T21:28:38.359Z,35.60
2022-07-26T21:31:07.131Z,35.60
2022-07-26T21:33:36.091Z,35.60
2022-07-26T21:36:05.583Z,35.60
2022-07-26T21:38:35.838Z,35.60
2022-07-26T21:41:04.784Z,35.60
2022-07-26T21:43:33.587Z,35.50
2022-07-26T21:46:02.299Z,35.50
2022-07-26T21:48:31.560Z,35.50
2022-07-26T21:51:00.199Z,35.50
2022-07-26T21:53:28.855Z,35.50
2022-07-26T21:55:59.611Z,35.50
2022-07-26T21:58:28.437Z,35.50
2022-07-26T22:01:06.527Z,35.50
2022-07-26T22:03:38.301Z,35.40
2022-07-26T22:06:08.574Z,35.40
2022-07-26T22:08:40.320Z,35.40
2022-07-26T22:11:10.678Z,35.30
2022-07-26T22:13:39.939Z,35.30
2022-07-26T22:16:09.046Z,35.30
2022-07-26T22:18:37.803Z,35.30
2022-07-26T22:21:06.735Z,35.30
2022-07-26T22:23:35.458Z,35.30
2022-07-26T22:26:06.235Z,35.20
2022-07-26T22:28:38.208Z,35.30
2022-07-26T22:31:06.862Z,35.20
2022-07-26T22:33:35.602Z,35.20
2022-07-26T22:36:04.888Z,35.20
2022-07-26T22:38:33.526Z,35.20
2022-07-26T22:41:02.342Z,35.20
2022-07-26T22:43:30.893Z,35.20
2022-07-26T22:46:00.932Z,35.10
2022-07-26T22:48:29.842Z,35.10
2022-07-26T22:50:58.598Z,35.10
2022-07-26T22:53:27.285Z,35.00
2022-07-26T22:55:56.157Z,35.10
2022-07-26T22:58:24.727Z,35.00
2022-07-26T23:00:53.356Z,35.10
2022-07-26T23:03:23.483Z,35.00
2022-07-26T23:05:52.553Z,35.00
2022-07-26T23:08:45.795Z,35.00
2022-07-26T23:11:10.266Z,35.00
2022-07-26T23:13:38.818Z,35.00
2022-07-26T23:16:08.553Z,35.00
2022-07-26T23:18:38.744Z,35.00
2022-07-26T23:21:07.656Z,35.00
2022-07-26T23:23:36.253Z,35.10
2022-07-26T23:26:05.136Z,35.10
2022-07-26T23:28:35.635Z,35.00
2022-07-26T23:31:11.575Z,34.90
2022-07-26T23:33:52.776Z,34.90
2022-07-26T23:36:25.428Z,34.90
2022-07-26T23:38:54.398Z,35.00
2022-07-26T23:41:23.284Z,34.90
2022-07-26T23:43:52.738Z,34.90
2022-07-26T23:46:21.729Z,35.00
2022-07-26T23:48:52.821Z,34.90
2022-07-26T23:51:22.893Z,34.90
2022-07-26T23:53:52.389Z,34.80
2022-07-26T23:56:21.585Z,34.80
2022-07-26T23:58:50.938Z,34.80
